Schedule Details


Flight Number: CTN301
Departure: Eleftherios Venizelos Intl (LGAV) at 19:05
Arrival: Cilipi (LDDU) at 19:55
Route: RIMAX UL613 XANIS L613 YNN UL611 VAKSU L611 LOKRU

Weather Information
LGAV 191220Z 07007KT 9999 SCT030 15/05 Q1017 NOSIG
LDDU 191230Z 16010KT 9999 BKN040 12/08 Q1017 NOSIG
Schedule Frequency

Route Map